sensor_id;sensor_type;location;lat;lon;timestamp;P1;durP1;ratioP1;P2;durP2;ratioP2
35306;SDS011;21420;52.196;21.416;2022-09-03T00:00:45;14.63;;;9.20;;
35306;SDS011;21420;52.196;21.416;2022-09-03T00:03:18;19.67;;;9.23;;
35306;SDS011;21420;52.196;21.416;2022-09-03T00:09:08;18.57;;;9.13;;
35306;SDS011;21420;52.196;21.416;2022-09-03T00:14:50;16.20;;;9.05;;
35306;SDS011;21420;52.196;21.416;2022-09-03T00:17:37;18.05;;;8.98;;
35306;SDS011;21420;52.196;21.416;2022-09-03T00:20:09;15.28;;;8.75;;
35306;SDS011;21420;52.196;21.416;2022-09-03T00:22:40;16.35;;;8.73;;
35306;SDS011;21420;52.196;21.416;2022-09-03T00:25:18;17.23;;;9.30;;
35306;SDS011;21420;52.196;21.416;2022-09-03T00:27:56;17.40;;;8.28;;
35306;SDS011;21420;52.196;21.416;2022-09-03T00:30:23;14.50;;;7.90;;
35306;SDS011;21420;52.196;21.416;2022-09-03T00:33:03;16.10;;;8.60;;
35306;SDS011;21420;52.196;21.416;2022-09-03T00:38:12;15.35;;;8.38;;
35306;SDS011;21420;52.196;21.416;2022-09-03T00:55:29;11.53;;;6.03;;
35306;SDS011;21420;52.196;21.416;2022-09-03T01:01:09;14.73;;;7.50;;
35306;SDS011;21420;52.196;21.416;2022-09-03T01:12:08;12.65;;;5.00;;
35306;SDS011;21420;52.196;21.416;2022-09-03T01:14:42;9.13;;;5.15;;
35306;SDS011;21420;52.196;21.416;2022-09-03T01:28:52;9.65;;;4.33;;
35306;SDS011;21420;52.196;21.416;2022-09-03T01:31:33;7.12;;;4.65;;
35306;SDS011;21420;52.196;21.416;2022-09-03T01:40:17;9.85;;;4.47;;
35306;SDS011;21420;52.196;21.416;2022-09-03T01:46:09;6.03;;;4.20;;
35306;SDS011;21420;52.196;21.416;2022-09-03T01:51:49;6.80;;;4.30;;
35306;SDS011;21420;52.196;21.416;2022-09-03T01:54:28;8.10;;;4.25;;
35306;SDS011;21420;52.196;21.416;2022-09-03T02:02:45;7.85;;;4.50;;
35306;SDS011;21420;52.196;21.416;2022-09-03T02:05:25;6.80;;;4.00;;
35306;SDS011;21420;52.196;21.416;2022-09-03T02:08:01;8.05;;;4.60;;
35306;SDS011;21420;52.196;21.416;2022-09-03T02:10:39;6.47;;;3.83;;
35306;SDS011;21420;52.196;21.416;2022-09-03T02:13:15;9.70;;;3.98;;
35306;SDS011;21420;52.196;21.416;2022-09-03T02:15:55;11.88;;;3.92;;
35306;SDS011;21420;52.196;21.416;2022-09-03T02:18:26;7.10;;;4.17;;
35306;SDS011;21420;52.196;21.416;2022-09-03T02:21:02;7.28;;;4.75;;
35306;SDS011;21420;52.196;21.416;2022-09-03T02:23:30;7.78;;;4.85;;
35306;SDS011;21420;52.196;21.416;2022-09-03T02:25:57;8.33;;;4.60;;
35306;SDS011;21420;52.196;21.416;2022-09-03T02:28:27;7.33;;;4.08;;
35306;SDS011;21420;52.196;21.416;2022-09-03T02:30:55;7.05;;;3.92;;
35306;SDS011;21420;52.196;21.416;2022-09-03T02:33:22;5.25;;;3.70;;
35306;SDS011;21420;52.196;21.416;2022-09-03T02:35:49;7.28;;;4.35;;
35306;SDS011;21420;52.196;21.416;2022-09-03T02:38:18;7.97;;;4.10;;
35306;SDS011;21420;52.196;21.416;2022-09-03T02:40:47;8.65;;;4.10;;
35306;SDS011;21420;52.196;21.416;2022-09-03T02:43:17;8.10;;;4.12;;
35306;SDS011;21420;52.196;21.416;2022-09-03T02:45:49;4.55;;;3.83;;
35306;SDS011;21420;52.196;21.416;2022-09-03T02:48:22;6.58;;;3.37;;
35306;SDS011;21420;52.196;21.416;2022-09-03T02:50:49;6.80;;;4.00;;
35306;SDS011;21420;52.196;21.416;2022-09-03T02:53:16;10.00;;;4.58;;
35306;SDS011;21420;52.196;21.416;2022-09-03T02:55:42;8.53;;;4.30;;
35306;SDS011;21420;52.196;21.416;2022-09-03T02:58:08;6.25;;;3.77;;
35306;SDS011;21420;52.196;21.416;2022-09-03T03:00:35;6.10;;;4.10;;
35306;SDS011;21420;52.196;21.416;2022-09-03T03:03:02;7.10;;;3.42;;
35306;SDS011;21420;52.196;21.416;2022-09-03T03:05:34;5.92;;;3.80;;
35306;SDS011;21420;52.196;21.416;2022-09-03T03:08:10;6.47;;;3.70;;
35306;SDS011;21420;52.196;21.416;2022-09-03T03:10:38;6.22;;;4.05;;
35306;SDS011;21420;52.196;21.416;2022-09-03T03:13:09;5.42;;;3.10;;
35306;SDS011;21420;52.196;21.416;2022-09-03T03:15:36;7.42;;;3.98;;
35306;SDS011;21420;52.196;21.416;2022-09-03T03:18:03;8.45;;;3.62;;
35306;SDS011;21420;52.196;21.416;2022-09-03T03:20:32;6.28;;;3.65;;
35306;SDS011;21420;52.196;21.416;2022-09-03T03:23:01;7.00;;;3.65;;
35306;SDS011;21420;52.196;21.416;2022-09-03T03:25:33;9.00;;;4.15;;
35306;SDS011;21420;52.196;21.416;2022-09-03T03:28:02;7.00;;;3.40;;
35306;SDS011;21420;52.196;21.416;2022-09-03T03:30:29;6.97;;;3.60;;
35306;SDS011;21420;52.196;21.416;2022-09-03T03:32:56;6.03;;;3.42;;
35306;SDS011;21420;52.196;21.416;2022-09-03T03:35:23;5.80;;;3.27;;
35306;SDS011;21420;52.196;21.416;2022-09-03T03:37:49;6.30;;;3.10;;
35306;SDS011;21420;52.196;21.416;2022-09-03T03:40:16;5.72;;;3.15;;
35306;SDS011;21420;52.196;21.416;2022-09-03T03:42:44;5.25;;;2.98;;
35306;SDS011;21420;52.196;21.416;2022-09-03T03:45:11;4.97;;;3.20;;
35306;SDS011;21420;52.196;21.416;2022-09-03T03:47:37;7.47;;;2.92;;
35306;SDS011;21420;52.196;21.416;2022-09-03T03:50:03;5.28;;;3.40;;
35306;SDS011;21420;52.196;21.416;2022-09-03T03:52:31;5.92;;;2.95;;
35306;SDS011;21420;52.196;21.416;2022-09-03T03:54:57;7.25;;;3.70;;
35306;SDS011;21420;52.196;21.416;2022-09-03T03:57:24;5.30;;;2.58;;
35306;SDS011;21420;52.196;21.416;2022-09-03T03:59:50;4.37;;;2.80;;
35306;SDS011;21420;52.196;21.416;2022-09-03T04:02:16;8.45;;;3.20;;
35306;SDS011;21420;52.196;21.416;2022-09-03T04:04:43;3.77;;;2.72;;
35306;SDS011;21420;52.196;21.416;2022-09-03T04:07:09;5.58;;;3.08;;
35306;SDS011;21420;52.196;21.416;2022-09-03T04:09:35;9.78;;;3.08;;
35306;SDS011;21420;52.196;21.416;2022-09-03T04:12:02;5.97;;;3.45;;
35306;SDS011;21420;52.196;21.416;2022-09-03T04:14:30;7.85;;;2.92;;
35306;SDS011;21420;52.196;21.416;2022-09-03T04:16:56;15.23;;;3.08;;
35306;SDS011;21420;52.196;21.416;2022-09-03T04:19:23;11.20;;;3.10;;
35306;SDS011;21420;52.196;21.416;2022-09-03T04:21:49;15.15;;;3.37;;
35306;SDS011;21420;52.196;21.416;2022-09-03T04:24:15;11.33;;;3.90;;
35306;SDS011;21420;52.196;21.416;2022-09-03T04:26:42;11.05;;;3.62;;
35306;SDS011;21420;52.196;21.416;2022-09-03T04:29:08;10.25;;;4.10;;
35306;SDS011;21420;52.196;21.416;2022-09-03T04:31:35;11.33;;;3.42;;
35306;SDS011;21420;52.196;21.416;2022-09-03T04:34:03;9.08;;;3.45;;
35306;SDS011;21420;52.196;21.416;2022-09-03T04:36:31;10.68;;;3.60;;
35306;SDS011;21420;52.196;21.416;2022-09-03T04:38:59;7.40;;;3.08;;
35306;SDS011;21420;52.196;21.416;2022-09-03T04:41:27;8.98;;;3.37;;
35306;SDS011;21420;52.196;21.416;2022-09-03T04:43:56;5.75;;;3.12;;
35306;SDS011;21420;52.196;21.416;2022-09-03T04:46:25;12.53;;;4.40;;
35306;SDS011;21420;52.196;21.416;2022-09-03T04:48:54;10.38;;;4.58;;
35306;SDS011;21420;52.196;21.416;2022-09-03T04:51:23;9.93;;;2.98;;
35306;SDS011;21420;52.196;21.416;2022-09-03T04:53:53;10.48;;;3.90;;
35306;SDS011;21420;52.196;21.416;2022-09-03T04:56:26;8.10;;;4.40;;
35306;SDS011;21420;52.196;21.416;2022-09-03T05:01:25;10.10;;;4.72;;
35306;SDS011;21420;52.196;21.416;2022-09-03T05:03:54;15.20;;;6.45;;
35306;SDS011;21420;52.196;21.416;2022-09-03T05:06:22;21.62;;;7.05;;
35306;SDS011;21420;52.196;21.416;2022-09-03T05:08:51;12.10;;;5.83;;
35306;SDS011;21420;52.196;21.416;2022-09-03T05:11:20;9.58;;;4.90;;
35306;SDS011;21420;52.196;21.416;2022-09-03T05:13:48;13.40;;;5.20;;
35306;SDS011;21420;52.196;21.416;2022-09-03T05:16:16;7.75;;;4.12;;
35306;SDS011;21420;52.196;21.416;2022-09-03T05:18:43;12.07;;;5.10;;
35306;SDS011;21420;52.196;21.416;2022-09-03T05:21:12;8.38;;;5.00;;
35306;SDS011;21420;52.196;21.416;2022-09-03T05:26:13;11.45;;;4.72;;
35306;SDS011;21420;52.196;21.416;2022-09-03T05:28:42;13.70;;;5.00;;
35306;SDS011;21420;52.196;21.416;2022-09-03T05:31:11;8.60;;;4.72;;
35306;SDS011;21420;52.196;21.416;2022-09-03T05:33:42;13.70;;;4.62;;
35306;SDS011;21420;52.196;21.416;2022-09-03T05:36:15;13.43;;;4.72;;
35306;SDS011;21420;52.196;21.416;2022-09-03T05:38:44;10.43;;;5.00;;
35306;SDS011;21420;52.196;21.416;2022-09-03T05:41:14;13.62;;;4.92;;
35306;SDS011;21420;52.196;21.416;2022-09-03T05:43:42;12.18;;;4.67;;
35306;SDS011;21420;52.196;21.416;2022-09-03T05:46:12;10.10;;;4.62;;
35306;SDS011;21420;52.196;21.416;2022-09-03T05:48:41;10.43;;;4.55;;
35306;SDS011;21420;52.196;21.416;2022-09-03T05:51:08;7.50;;;4.53;;
35306;SDS011;21420;52.196;21.416;2022-09-03T05:53:42;10.32;;;4.87;;
35306;SDS011;21420;52.196;21.416;2022-09-03T05:56:12;15.85;;;5.05;;
35306;SDS011;21420;52.196;21.416;2022-09-03T05:58:44;11.88;;;4.60;;
35306;SDS011;21420;52.196;21.416;2022-09-03T06:01:16;11.70;;;4.17;;
35306;SDS011;21420;52.196;21.416;2022-09-03T06:03:55;12.85;;;4.22;;
35306;SDS011;21420;52.196;21.416;2022-09-03T06:06:24;8.65;;;3.58;;
35306;SDS011;21420;52.196;21.416;2022-09-03T06:08:57;12.58;;;3.90;;
35306;SDS011;21420;52.196;21.416;2022-09-03T06:11:22;7.15;;;3.70;;
35306;SDS011;21420;52.196;21.416;2022-09-03T06:13:53;7.42;;;3.60;;
35306;SDS011;21420;52.196;21.416;2022-09-03T06:16:21;7.70;;;2.77;;
35306;SDS011;21420;52.196;21.416;2022-09-03T06:18:48;4.55;;;2.10;;
35306;SDS011;21420;52.196;21.416;2022-09-03T06:21:15;5.30;;;2.58;;
35306;SDS011;21420;52.196;21.416;2022-09-03T06:23:42;7.83;;;3.45;;
35306;SDS011;21420;52.196;21.416;2022-09-03T06:26:09;9.75;;;3.27;;
35306;SDS011;21420;52.196;21.416;2022-09-03T06:28:40;7.97;;;3.20;;
35306;SDS011;21420;52.196;21.416;2022-09-03T06:31:11;6.60;;;2.02;;
35306;SDS011;21420;52.196;21.416;2022-09-03T06:33:40;3.20;;;1.85;;
35306;SDS011;21420;52.196;21.416;2022-09-03T06:36:10;5.40;;;2.70;;
35306;SDS011;21420;52.196;21.416;2022-09-03T06:38:39;7.53;;;2.75;;
35306;SDS011;21420;52.196;21.416;2022-09-03T06:41:13;4.58;;;2.05;;
35306;SDS011;21420;52.196;21.416;2022-09-03T06:43:40;4.87;;;2.30;;
35306;SDS011;21420;52.196;21.416;2022-09-03T06:46:09;9.98;;;2.95;;
35306;SDS011;21420;52.196;21.416;2022-09-03T06:48:38;6.22;;;2.35;;
35306;SDS011;21420;52.196;21.416;2022-09-03T06:53:41;7.42;;;2.30;;
35306;SDS011;21420;52.196;21.416;2022-09-03T06:56:15;3.92;;;1.80;;
35306;SDS011;21420;52.196;21.416;2022-09-03T06:58:47;4.80;;;1.67;;
35306;SDS011;21420;52.196;21.416;2022-09-03T07:01:15;1.80;;;1.55;;
35306;SDS011;21420;52.196;21.416;2022-09-03T07:03:45;2.75;;;1.35;;
35306;SDS011;21420;52.196;21.416;2022-09-03T07:06:17;2.22;;;1.65;;
35306;SDS011;21420;52.196;21.416;2022-09-03T07:08:44;3.67;;;1.47;;
35306;SDS011;21420;52.196;21.416;2022-09-03T07:11:12;1.42;;;1.32;;
35306;SDS011;21420;52.196;21.416;2022-09-03T07:13:43;3.00;;;1.22;;
35306;SDS011;21420;52.196;21.416;2022-09-03T07:16:13;2.35;;;1.30;;
35306;SDS011;21420;52.196;21.416;2022-09-03T07:18:45;2.15;;;1.10;;
35306;SDS011;21420;52.196;21.416;2022-09-03T07:21:13;5.25;;;1.37;;
35306;SDS011;21420;52.196;21.416;2022-09-03T07:23:42;3.58;;;1.52;;
35306;SDS011;21420;52.196;21.416;2022-09-03T07:26:13;1.72;;;1.25;;
35306;SDS011;21420;52.196;21.416;2022-09-03T07:28:48;4.80;;;1.47;;
35306;SDS011;21420;52.196;21.416;2022-09-03T07:31:20;4.12;;;1.52;;
35306;SDS011;21420;52.196;21.416;2022-09-03T07:33:52;2.30;;;1.30;;
35306;SDS011;21420;52.196;21.416;2022-09-03T07:36:23;1.80;;;1.17;;
35306;SDS011;21420;52.196;21.416;2022-09-03T07:38:56;6.42;;;1.72;;
35306;SDS011;21420;52.196;21.416;2022-09-03T07:41:24;2.90;;;1.10;;
35306;SDS011;21420;52.196;21.416;2022-09-03T07:43:52;2.93;;;1.10;;
35306;SDS011;21420;52.196;21.416;2022-09-03T07:46:20;3.72;;;1.15;;
35306;SDS011;21420;52.196;21.416;2022-09-03T07:48:53;1.77;;;1.30;;
35306;SDS011;21420;52.196;21.416;2022-09-03T07:51:23;3.30;;;1.45;;
35306;SDS011;21420;52.196;21.416;2022-09-03T07:53:56;1.52;;;0.90;;
35306;SDS011;21420;52.196;21.416;2022-09-03T07:58:51;1.75;;;1.30;;
35306;SDS011;21420;52.196;21.416;2022-09-03T08:01:21;1.17;;;0.90;;
35306;SDS011;21420;52.196;21.416;2022-09-03T08:03:49;1.55;;;1.10;;
35306;SDS011;21420;52.196;21.416;2022-09-03T08:06:18;5.28;;;1.50;;
35306;SDS011;21420;52.196;21.416;2022-09-03T08:08:47;1.45;;;1.35;;
35306;SDS011;21420;52.196;21.416;2022-09-03T08:11:15;2.87;;;1.60;;
35306;SDS011;21420;52.196;21.416;2022-09-03T08:13:45;2.77;;;1.35;;
35306;SDS011;21420;52.196;21.416;2022-09-03T08:16:16;4.62;;;1.65;;
35306;SDS011;21420;52.196;21.416;2022-09-03T08:18:43;1.52;;;1.40;;
35306;SDS011;21420;52.196;21.416;2022-09-03T08:21:11;2.25;;;1.45;;
35306;SDS011;21420;52.196;21.416;2022-09-03T08:23:42;3.02;;;1.22;;
35306;SDS011;21420;52.196;21.416;2022-09-03T08:26:12;1.92;;;1.40;;
35306;SDS011;21420;52.196;21.416;2022-09-03T08:28:40;2.33;;;1.72;;
35306;SDS011;21420;52.196;21.416;2022-09-03T08:33:43;2.17;;;1.60;;
35306;SDS011;21420;52.196;21.416;2022-09-03T08:36:14;2.75;;;1.20;;
35306;SDS011;21420;52.196;21.416;2022-09-03T08:38:47;1.60;;;1.50;;
35306;SDS011;21420;52.196;21.416;2022-09-03T08:41:19;2.33;;;1.40;;
35306;SDS011;21420;52.196;21.416;2022-09-03T08:46:54;1.98;;;1.35;;
35306;SDS011;21420;52.196;21.416;2022-09-03T08:52:22;2.00;;;1.30;;
35306;SDS011;21420;52.196;21.416;2022-09-03T08:54:54;1.12;;;1.02;;
35306;SDS011;21420;52.196;21.416;2022-09-03T08:57:25;2.75;;;1.40;;
35306;SDS011;21420;52.196;21.416;2022-09-03T09:11:10;1.75;;;1.17;;
35306;SDS011;21420;52.196;21.416;2022-09-03T09:14:13;3.17;;;1.15;;
35306;SDS011;21420;52.196;21.416;2022-09-03T09:21:35;1.30;;;1.00;;
35306;SDS011;21420;52.196;21.416;2022-09-03T09:24:10;3.65;;;0.90;;
35306;SDS011;21420;52.196;21.416;2022-09-03T09:26:45;4.12;;;1.20;;
35306;SDS011;21420;52.196;21.416;2022-09-03T09:29:14;1.57;;;1.15;;
35306;SDS011;21420;52.196;21.416;2022-09-03T09:31:41;1.52;;;1.10;;
35306;SDS011;21420;52.196;21.416;2022-09-03T09:34:10;1.42;;;0.98;;
35306;SDS011;21420;52.196;21.416;2022-09-03T09:36:51;3.58;;;1.00;;
35306;SDS011;21420;52.196;21.416;2022-09-03T09:39:20;1.30;;;1.07;;
35306;SDS011;21420;52.196;21.416;2022-09-03T09:42:06;3.15;;;0.80;;
35306;SDS011;21420;52.196;21.416;2022-09-03T09:44:36;2.35;;;0.70;;
35306;SDS011;21420;52.196;21.416;2022-09-03T09:47:06;5.25;;;0.90;;
35306;SDS011;21420;52.196;21.416;2022-09-03T09:49:37;0.90;;;0.90;;
35306;SDS011;21420;52.196;21.416;2022-09-03T09:52:20;1.82;;;0.60;;
35306;SDS011;21420;52.196;21.416;2022-09-03T09:54:51;1.27;;;0.75;;
35306;SDS011;21420;52.196;21.416;2022-09-03T09:57:22;1.72;;;0.98;;
35306;SDS011;21420;52.196;21.416;2022-09-03T10:00:00;1.60;;;0.60;;
35306;SDS011;21420;52.196;21.416;2022-09-03T10:02:34;2.77;;;0.75;;
35306;SDS011;21420;52.196;21.416;2022-09-03T10:05:12;4.92;;;0.80;;
35306;SDS011;21420;52.196;21.416;2022-09-03T10:10:29;2.70;;;1.00;;
35306;SDS011;21420;52.196;21.416;2022-09-03T10:13:06;1.00;;;0.70;;
35306;SDS011;21420;52.196;21.416;2022-09-03T10:15:51;4.08;;;0.70;;
35306;SDS011;21420;52.196;21.416;2022-09-03T10:21:29;3.17;;;0.70;;
35306;SDS011;21420;52.196;21.416;2022-09-03T10:29:37;1.02;;;0.75;;
35306;SDS011;21420;52.196;21.416;2022-09-03T10:34:51;2.20;;;0.82;;
35306;SDS011;21420;52.196;21.416;2022-09-03T10:40:51;1.47;;;1.00;;
35306;SDS011;21420;52.196;21.416;2022-09-03T10:51:42;1.27;;;0.80;;
35306;SDS011;21420;52.196;21.416;2022-09-03T11:00:33;1.75;;;0.80;;
35306;SDS011;21420;52.196;21.416;2022-09-03T11:05:27;2.42;;;0.90;;
35306;SDS011;21420;52.196;21.416;2022-09-03T11:10:49;1.98;;;0.80;;
35306;SDS011;21420;52.196;21.416;2022-09-03T11:13:44;0.60;;;0.60;;
35306;SDS011;21420;52.196;21.416;2022-09-03T11:16:19;1.20;;;0.60;;
35306;SDS011;21420;52.196;21.416;2022-09-03T11:18:54;4.72;;;1.02;;
35306;SDS011;21420;52.196;21.416;2022-09-03T11:21:29;1.82;;;0.82;;
35306;SDS011;21420;52.196;21.416;2022-09-03T11:24:04;0.95;;;0.80;;
35306;SDS011;21420;52.196;21.416;2022-09-03T11:26:44;3.77;;;0.82;;
35306;SDS011;21420;52.196;21.416;2022-09-03T11:29:45;2.02;;;0.93;;
35306;SDS011;21420;52.196;21.416;2022-09-03T11:32:21;2.60;;;0.70;;
35306;SDS011;21420;52.196;21.416;2022-09-03T11:38:03;0.88;;;0.68;;
35306;SDS011;21420;52.196;21.416;2022-09-03T11:43:53;1.27;;;0.80;;
35306;SDS011;21420;52.196;21.416;2022-09-03T11:50:23;1.70;;;0.80;;
35306;SDS011;21420;52.196;21.416;2022-09-03T11:53:08;1.05;;;0.55;;
35306;SDS011;21420;52.196;21.416;2022-09-03T11:58:29;2.20;;;1.00;;
35306;SDS011;21420;52.196;21.416;2022-09-03T12:01:00;2.12;;;1.00;;
35306;SDS011;21420;52.196;21.416;2022-09-03T12:03:52;1.82;;;1.12;;
35306;SDS011;21420;52.196;21.416;2022-09-03T12:06:21;3.70;;;0.98;;
35306;SDS011;21420;52.196;21.416;2022-09-03T12:12:10;1.87;;;0.60;;
35306;SDS011;21420;52.196;21.416;2022-09-03T12:20:46;3.37;;;0.90;;
35306;SDS011;21420;52.196;21.416;2022-09-03T12:23:33;1.65;;;0.88;;
35306;SDS011;21420;52.196;21.416;2022-09-03T12:26:11;1.00;;;0.80;;
35306;SDS011;21420;52.196;21.416;2022-09-03T12:28:41;3.77;;;0.70;;
35306;SDS011;21420;52.196;21.416;2022-09-03T12:31:19;2.33;;;0.90;;
35306;SDS011;21420;52.196;21.416;2022-09-03T12:33:50;7.35;;;1.00;;
35306;SDS011;21420;52.196;21.416;2022-09-03T12:36:22;2.47;;;0.85;;
35306;SDS011;21420;52.196;21.416;2022-09-03T12:38:49;1.62;;;0.62;;
35306;SDS011;21420;52.196;21.416;2022-09-03T12:41:27;1.27;;;0.80;;
35306;SDS011;21420;52.196;21.416;2022-09-03T12:43:56;1.72;;;0.60;;
35306;SDS011;21420;52.196;21.416;2022-09-03T12:46:30;2.80;;;0.72;;
35306;SDS011;21420;52.196;21.416;2022-09-03T12:48:59;5.42;;;0.85;;
35306;SDS011;21420;52.196;21.416;2022-09-03T12:51:30;6.15;;;0.98;;
35306;SDS011;21420;52.196;21.416;2022-09-03T12:53:59;1.55;;;0.68;;
35306;SDS011;21420;52.196;21.416;2022-09-03T12:56:27;2.87;;;0.60;;
35306;SDS011;21420;52.196;21.416;2022-09-03T12:58:58;1.47;;;0.70;;
35306;SDS011;21420;52.196;21.416;2022-09-03T13:01:36;0.70;;;0.60;;
35306;SDS011;21420;52.196;21.416;2022-09-03T13:04:12;1.57;;;0.70;;
35306;SDS011;21420;52.196;21.416;2022-09-03T13:06:47;2.42;;;0.65;;
35306;SDS011;21420;52.196;21.416;2022-09-03T13:09:25;3.90;;;0.72;;
35306;SDS011;21420;52.196;21.416;2022-09-03T13:11:55;5.17;;;1.95;;
35306;SDS011;21420;52.196;21.416;2022-09-03T13:14:28;0.70;;;0.65;;
35306;SDS011;21420;52.196;21.416;2022-09-03T13:26:35;1.20;;;0.85;;
35306;SDS011;21420;52.196;21.416;2022-09-03T13:29:06;1.80;;;0.70;;
35306;SDS011;21420;52.196;21.416;2022-09-03T13:31:44;3.30;;;0.70;;
35306;SDS011;21420;52.196;21.416;2022-09-03T13:34:31;2.12;;;0.80;;
35306;SDS011;21420;52.196;21.416;2022-09-03T13:40:10;1.85;;;0.68;;
35306;SDS011;21420;52.196;21.416;2022-09-03T13:48:27;1.45;;;0.80;;
35306;SDS011;21420;52.196;21.416;2022-09-03T13:51:23;2.20;;;0.77;;
35306;SDS011;21420;52.196;21.416;2022-09-03T13:54:18;1.05;;;0.95;;
35306;SDS011;21420;52.196;21.416;2022-09-03T13:57:00;2.70;;;1.07;;
35306;SDS011;21420;52.196;21.416;2022-09-03T13:59:52;7.12;;;1.10;;
35306;SDS011;21420;52.196;21.416;2022-09-03T14:02:45;1.73;;;0.80;;
35306;SDS011;21420;52.196;21.416;2022-09-03T14:11:02;1.77;;;0.80;;
35306;SDS011;21420;52.196;21.416;2022-09-03T14:13:59;1.87;;;1.00;;
35306;SDS011;21420;52.196;21.416;2022-09-03T14:16:54;2.02;;;1.27;;
35306;SDS011;21420;52.196;21.416;2022-09-03T14:19:34;2.67;;;1.07;;
35306;SDS011;21420;52.196;21.416;2022-09-03T14:25:08;2.90;;;1.00;;
35306;SDS011;21420;52.196;21.416;2022-09-03T14:27:46;2.15;;;1.10;;
35306;SDS011;21420;52.196;21.416;2022-09-03T14:35:38;2.55;;;1.00;;
35306;SDS011;21420;52.196;21.416;2022-09-03T14:44:06;2.60;;;1.12;;
35306;SDS011;21420;52.196;21.416;2022-09-03T14:47:17;5.30;;;1.12;;
35306;SDS011;21420;52.196;21.416;2022-09-03T14:50:01;1.65;;;1.00;;
35306;SDS011;21420;52.196;21.416;2022-09-03T15:01:41;3.33;;;0.85;;
35306;SDS011;21420;52.196;21.416;2022-09-03T15:12:54;4.83;;;1.05;;
35306;SDS011;21420;52.196;21.416;2022-09-03T15:15:31;9.33;;;2.33;;
35306;SDS011;21420;52.196;21.416;2022-09-03T15:18:23;4.53;;;1.47;;
35306;SDS011;21420;52.196;21.416;2022-09-03T15:24:09;3.42;;;1.57;;
35306;SDS011;21420;52.196;21.416;2022-09-03T15:29:50;2.65;;;1.47;;
35306;SDS011;21420;52.196;21.416;2022-09-03T15:41:38;4.75;;;1.62;;
35306;SDS011;21420;52.196;21.416;2022-09-03T15:44:15;5.05;;;1.92;;
35306;SDS011;21420;52.196;21.416;2022-09-03T15:46:49;4.80;;;1.90;;
35306;SDS011;21420;52.196;21.416;2022-09-03T15:55:06;2.75;;;1.80;;
35306;SDS011;21420;52.196;21.416;2022-09-03T15:58:05;3.65;;;1.50;;
35306;SDS011;21420;52.196;21.416;2022-09-03T16:00:57;4.60;;;1.67;;
35306;SDS011;21420;52.196;21.416;2022-09-03T16:03:32;6.15;;;1.90;;
35306;SDS011;21420;52.196;21.416;2022-09-03T16:06:05;4.15;;;1.30;;
35306;SDS011;21420;52.196;21.416;2022-09-03T16:08:39;2.42;;;1.80;;
35306;SDS011;21420;52.196;21.416;2022-09-03T16:11:11;2.22;;;1.55;;
35306;SDS011;21420;52.196;21.416;2022-09-03T16:19:55;6.17;;;2.47;;
35306;SDS011;21420;52.196;21.416;2022-09-03T16:22:39;4.37;;;2.40;;
35306;SDS011;21420;52.196;21.416;2022-09-03T16:25:15;3.92;;;2.37;;
35306;SDS011;21420;52.196;21.416;2022-09-03T16:27:59;3.85;;;1.95;;
35306;SDS011;21420;52.196;21.416;2022-09-03T16:42:43;10.72;;;4.00;;
35306;SDS011;21420;52.196;21.416;2022-09-03T16:48:31;6.85;;;3.20;;
35306;SDS011;21420;52.196;21.416;2022-09-03T16:54:54;7.45;;;4.00;;
35306;SDS011;21420;52.196;21.416;2022-09-03T17:08:33;7.62;;;4.00;;
35306;SDS011;21420;52.196;21.416;2022-09-03T17:14:26;9.73;;;4.60;;
35306;SDS011;21420;52.196;21.416;2022-09-03T17:26:11;13.65;;;4.92;;
35306;SDS011;21420;52.196;21.416;2022-09-03T17:28:48;15.48;;;3.67;;
35306;SDS011;21420;52.196;21.416;2022-09-03T17:31:46;14.45;;;4.87;;
35306;SDS011;21420;52.196;21.416;2022-09-03T17:37:25;16.27;;;4.75;;
35306;SDS011;21420;52.196;21.416;2022-09-03T17:43:01;16.73;;;6.40;;
35306;SDS011;21420;52.196;21.416;2022-09-03T17:45:44;26.15;;;8.45;;
35306;SDS011;21420;52.196;21.416;2022-09-03T17:48:32;17.27;;;5.90;;
35306;SDS011;21420;52.196;21.416;2022-09-03T17:51:14;15.48;;;6.12;;
35306;SDS011;21420;52.196;21.416;2022-09-03T17:54:04;25.00;;;11.28;;
35306;SDS011;21420;52.196;21.416;2022-09-03T18:02:36;43.13;;;19.20;;
35306;SDS011;21420;52.196;21.416;2022-09-03T18:05:27;35.13;;;15.30;;
35306;SDS011;21420;52.196;21.416;2022-09-03T18:08:06;23.95;;;11.35;;
35306;SDS011;21420;52.196;21.416;2022-09-03T18:10:41;36.93;;;14.73;;
35306;SDS011;21420;52.196;21.416;2022-09-03T18:16:32;27.60;;;13.95;;
35306;SDS011;21420;52.196;21.416;2022-09-03T18:19:05;35.70;;;17.00;;
35306;SDS011;21420;52.196;21.416;2022-09-03T18:21:57;32.33;;;18.23;;
35306;SDS011;21420;52.196;21.416;2022-09-03T18:24:53;38.98;;;17.92;;
35306;SDS011;21420;52.196;21.416;2022-09-03T18:27:48;46.75;;;23.15;;
35306;SDS011;21420;52.196;21.416;2022-09-03T18:30:44;53.92;;;25.30;;
35306;SDS011;21420;52.196;21.416;2022-09-03T18:33:29;66.05;;;27.87;;
35306;SDS011;21420;52.196;21.416;2022-09-03T18:36:14;69.30;;;31.02;;
35306;SDS011;21420;52.196;21.416;2022-09-03T18:39:42;59.25;;;27.50;;
35306;SDS011;21420;52.196;21.416;2022-09-03T19:01:07;61.45;;;27.17;;
35306;SDS011;21420;52.196;21.416;2022-09-03T19:06:57;65.20;;;26.10;;
35306;SDS011;21420;52.196;21.416;2022-09-03T19:09:57;54.45;;;25.40;;
35306;SDS011;21420;52.196;21.416;2022-09-03T19:13:00;52.33;;;24.25;;
35306;SDS011;21420;52.196;21.416;2022-09-03T19:15:58;57.15;;;25.70;;
35306;SDS011;21420;52.196;21.416;2022-09-03T19:22:37;55.73;;;28.40;;
35306;SDS011;21420;52.196;21.416;2022-09-03T19:25:26;54.67;;;25.95;;
35306;SDS011;21420;52.196;21.416;2022-09-03T19:31:27;71.62;;;35.55;;
35306;SDS011;21420;52.196;21.416;2022-09-03T19:37:36;53.68;;;28.92;;
35306;SDS011;21420;52.196;21.416;2022-09-03T19:48:23;67.27;;;32.85;;
35306;SDS011;21420;52.196;21.416;2022-09-03T19:50:40;72.45;;;37.35;;
35306;SDS011;21420;52.196;21.416;2022-09-03T19:53:29;70.60;;;33.23;;
35306;SDS011;21420;52.196;21.416;2022-09-03T19:56:19;59.70;;;31.42;;
35306;SDS011;21420;52.196;21.416;2022-09-03T19:59:18;56.77;;;31.48;;
35306;SDS011;21420;52.196;21.416;2022-09-03T20:02:05;53.17;;;31.40;;
35306;SDS011;21420;52.196;21.416;2022-09-03T20:04:51;60.35;;;33.88;;
35306;SDS011;21420;52.196;21.416;2022-09-03T20:07:43;55.60;;;29.32;;
35306;SDS011;21420;52.196;21.416;2022-09-03T20:10:32;47.20;;;26.05;;
35306;SDS011;21420;52.196;21.416;2022-09-03T20:30:12;45.03;;;23.90;;
35306;SDS011;21420;52.196;21.416;2022-09-03T20:33:03;52.17;;;27.70;;
35306;SDS011;21420;52.196;21.416;2022-09-03T20:38:41;70.75;;;36.33;;
35306;SDS011;21420;52.196;21.416;2022-09-03T20:41:29;47.25;;;31.12;;
35306;SDS011;21420;52.196;21.416;2022-09-03T20:44:28;48.40;;;26.37;;
35306;SDS011;21420;52.196;21.416;2022-09-03T20:53:04;31.60;;;21.07;;
35306;SDS011;21420;52.196;21.416;2022-09-03T20:56:00;39.92;;;21.68;;
35306;SDS011;21420;52.196;21.416;2022-09-03T20:58:43;42.83;;;24.18;;
35306;SDS011;21420;52.196;21.416;2022-09-03T21:13:12;33.90;;;18.98;;
35306;SDS011;21420;52.196;21.416;2022-09-03T21:24:36;34.88;;;20.12;;
35306;SDS011;21420;52.196;21.416;2022-09-03T21:27:06;32.28;;;19.00;;
35306;SDS011;21420;52.196;21.416;2022-09-03T21:29:50;35.20;;;19.98;;
35306;SDS011;21420;52.196;21.416;2022-09-03T21:32:17;34.73;;;19.17;;
35306;SDS011;21420;52.196;21.416;2022-09-03T21:40:40;27.85;;;15.23;;
35306;SDS011;21420;52.196;21.416;2022-09-03T21:43:27;23.40;;;13.75;;
35306;SDS011;21420;52.196;21.416;2022-09-03T21:48:39;28.80;;;14.35;;